sensor_id;sensor_type;location;lat;lon;timestamp;P1;durP1;ratioP1;P2;durP2;ratioP2
14251;SDS011;7210;51.502;10.722;2023-07-02T00:00:54;5.30;;;4.17;;
14251;SDS011;7210;51.502;10.722;2023-07-02T00:03:22;4.67;;;4.17;;
14251;SDS011;7210;51.502;10.722;2023-07-02T00:05:49;7.43;;;4.37;;
14251;SDS011;7210;51.502;10.722;2023-07-02T00:08:19;4.30;;;4.00;;
14251;SDS011;7210;51.502;10.722;2023-07-02T00:10:47;4.40;;;4.00;;
14251;SDS011;7210;51.502;10.722;2023-07-02T00:13:20;5.83;;;4.20;;
14251;SDS011;7210;51.502;10.722;2023-07-02T00:15:50;4.47;;;4.07;;
14251;SDS011;7210;51.502;10.722;2023-07-02T00:18:20;5.27;;;4.40;;
14251;SDS011;7210;51.502;10.722;2023-07-02T00:20:56;5.03;;;4.07;;
14251;SDS011;7210;51.502;10.722;2023-07-02T00:23:23;5.67;;;3.60;;
14251;SDS011;7210;51.502;10.722;2023-07-02T00:25:50;4.40;;;3.87;;
14251;SDS011;7210;51.502;10.722;2023-07-02T00:28:18;5.87;;;4.23;;
14251;SDS011;7210;51.502;10.722;2023-07-02T00:30:45;5.47;;;4.70;;
14251;SDS011;7210;51.502;10.722;2023-07-02T00:33:14;4.93;;;4.33;;
14251;SDS011;7210;51.502;10.722;2023-07-02T00:35:45;6.27;;;4.73;;
14251;SDS011;7210;51.502;10.722;2023-07-02T00:38:12;5.20;;;4.53;;
14251;SDS011;7210;51.502;10.722;2023-07-02T00:40:39;5.30;;;4.73;;
14251;SDS011;7210;51.502;10.722;2023-07-02T00:43:14;4.80;;;4.20;;
14251;SDS011;7210;51.502;10.722;2023-07-02T00:45:41;5.43;;;4.83;;
14251;SDS011;7210;51.502;10.722;2023-07-02T00:48:26;4.57;;;4.17;;
14251;SDS011;7210;51.502;10.722;2023-07-02T00:50:57;7.30;;;4.63;;
14251;SDS011;7210;51.502;10.722;2023-07-02T00:53:24;4.60;;;4.20;;
14251;SDS011;7210;51.502;10.722;2023-07-02T00:55:52;6.93;;;4.37;;
14251;SDS011;7210;51.502;10.722;2023-07-02T00:58:19;7.80;;;4.50;;
14251;SDS011;7210;51.502;10.722;2023-07-02T01:00:47;8.73;;;4.97;;
14251;SDS011;7210;51.502;10.722;2023-07-02T01:03:14;5.97;;;4.77;;
14251;SDS011;7210;51.502;10.722;2023-07-02T01:05:41;10.13;;;5.27;;
14251;SDS011;7210;51.502;10.722;2023-07-02T01:08:10;8.57;;;5.10;;
14251;SDS011;7210;51.502;10.722;2023-07-02T01:10:37;5.50;;;4.53;;
14251;SDS011;7210;51.502;10.722;2023-07-02T01:13:06;7.77;;;4.90;;
14251;SDS011;7210;51.502;10.722;2023-07-02T01:15:48;6.10;;;4.53;;
14251;SDS011;7210;51.502;10.722;2023-07-02T01:18:20;4.77;;;4.37;;
14251;SDS011;7210;51.502;10.722;2023-07-02T01:20:50;7.07;;;4.73;;
14251;SDS011;7210;51.502;10.722;2023-07-02T01:23:19;9.73;;;5.50;;
14251;SDS011;7210;51.502;10.722;2023-07-02T01:25:51;6.90;;;4.63;;
14251;SDS011;7210;51.502;10.722;2023-07-02T01:28:18;6.13;;;4.80;;
14251;SDS011;7210;51.502;10.722;2023-07-02T01:30:45;8.70;;;5.30;;
14251;SDS011;7210;51.502;10.722;2023-07-02T01:33:13;6.87;;;5.30;;
14251;SDS011;7210;51.502;10.722;2023-07-02T01:35:40;6.33;;;4.70;;
14251;SDS011;7210;51.502;10.722;2023-07-02T01:38:09;5.80;;;5.20;;
14251;SDS011;7210;51.502;10.722;2023-07-02T01:40:38;7.93;;;4.90;;
14251;SDS011;7210;51.502;10.722;2023-07-02T01:43:08;8.70;;;4.93;;
14251;SDS011;7210;51.502;10.722;2023-07-02T01:45:36;6.37;;;5.17;;
14251;SDS011;7210;51.502;10.722;2023-07-02T01:48:04;6.87;;;4.93;;
14251;SDS011;7210;51.502;10.722;2023-07-02T01:50:32;5.70;;;5.20;;
14251;SDS011;7210;51.502;10.722;2023-07-02T01:53:02;5.30;;;4.80;;
14251;SDS011;7210;51.502;10.722;2023-07-02T01:55:39;5.90;;;5.27;;
14251;SDS011;7210;51.502;10.722;2023-07-02T01:58:06;7.87;;;5.63;;
14251;SDS011;7210;51.502;10.722;2023-07-02T02:00:33;8.67;;;5.70;;
14251;SDS011;7210;51.502;10.722;2023-07-02T02:03:02;8.37;;;5.67;;
14251;SDS011;7210;51.502;10.722;2023-07-02T02:05:31;8.47;;;6.10;;
14251;SDS011;7210;51.502;10.722;2023-07-02T02:08:02;8.47;;;6.40;;
14251;SDS011;7210;51.502;10.722;2023-07-02T02:10:30;7.83;;;6.20;;
14251;SDS011;7210;51.502;10.722;2023-07-02T02:13:09;12.30;;;6.80;;
14251;SDS011;7210;51.502;10.722;2023-07-02T02:15:36;10.20;;;7.03;;
14251;SDS011;7210;51.502;10.722;2023-07-02T02:18:05;8.23;;;7.40;;
14251;SDS011;7210;51.502;10.722;2023-07-02T02:20:38;7.97;;;7.17;;
14251;SDS011;7210;51.502;10.722;2023-07-02T02:23:08;8.23;;;7.17;;
14251;SDS011;7210;51.502;10.722;2023-07-02T02:25:35;7.30;;;6.70;;
14251;SDS011;7210;51.502;10.722;2023-07-02T02:28:03;8.60;;;7.67;;
14251;SDS011;7210;51.502;10.722;2023-07-02T02:30:33;8.67;;;7.87;;
14251;SDS011;7210;51.502;10.722;2023-07-02T02:33:01;8.83;;;8.03;;
14251;SDS011;7210;51.502;10.722;2023-07-02T02:35:29;9.20;;;8.40;;
14251;SDS011;7210;51.502;10.722;2023-07-02T02:37:57;8.70;;;7.90;;
14251;SDS011;7210;51.502;10.722;2023-07-02T02:40:32;8.70;;;8.00;;
14251;SDS011;7210;51.502;10.722;2023-07-02T02:43:00;10.23;;;9.13;;
14251;SDS011;7210;51.502;10.722;2023-07-02T02:45:28;10.50;;;9.50;;
14251;SDS011;7210;51.502;10.722;2023-07-02T02:47:57;10.63;;;9.63;;
14251;SDS011;7210;51.502;10.722;2023-07-02T02:50:24;12.07;;;10.73;;
14251;SDS011;7210;51.502;10.722;2023-07-02T02:52:56;11.07;;;10.27;;
14251;SDS011;7210;51.502;10.722;2023-07-02T02:55:23;11.73;;;10.80;;
14251;SDS011;7210;51.502;10.722;2023-07-02T02:57:51;12.40;;;11.20;;
14251;SDS011;7210;51.502;10.722;2023-07-02T03:00:18;12.97;;;11.77;;
14251;SDS011;7210;51.502;10.722;2023-07-02T03:02:45;12.10;;;11.20;;
14251;SDS011;7210;51.502;10.722;2023-07-02T03:08:00;13.50;;;12.30;;
14251;SDS011;7210;51.502;10.722;2023-07-02T03:10:32;12.93;;;11.93;;
14251;SDS011;7210;51.502;10.722;2023-07-02T03:13:02;12.40;;;11.50;;
14251;SDS011;7210;51.502;10.722;2023-07-02T03:15:38;13.23;;;12.10;;
14251;SDS011;7210;51.502;10.722;2023-07-02T03:18:05;14.27;;;12.87;;
14251;SDS011;7210;51.502;10.722;2023-07-02T03:20:34;14.07;;;12.50;;
14251;SDS011;7210;51.502;10.722;2023-07-02T03:23:02;13.57;;;12.33;;
14251;SDS011;7210;51.502;10.722;2023-07-02T03:25:29;15.13;;;13.63;;
14251;SDS011;7210;51.502;10.722;2023-07-02T03:27:57;15.60;;;13.00;;
14251;SDS011;7210;51.502;10.722;2023-07-02T03:30:24;13.13;;;11.87;;
14251;SDS011;7210;51.502;10.722;2023-07-02T03:32:51;13.50;;;12.30;;
14251;SDS011;7210;51.502;10.722;2023-07-02T03:35:20;14.43;;;13.13;;
14251;SDS011;7210;51.502;10.722;2023-07-02T03:37:48;13.70;;;12.30;;
14251;SDS011;7210;51.502;10.722;2023-07-02T03:42:53;14.57;;;13.17;;
14251;SDS011;7210;51.502;10.722;2023-07-02T03:45:38;13.53;;;12.37;;
14251;SDS011;7210;51.502;10.722;2023-07-02T03:48:05;13.30;;;12.10;;
14251;SDS011;7210;51.502;10.722;2023-07-02T03:50:38;12.57;;;11.67;;
14251;SDS011;7210;51.502;10.722;2023-07-02T03:53:06;12.80;;;11.70;;
14251;SDS011;7210;51.502;10.722;2023-07-02T03:55:34;13.63;;;12.23;;
14251;SDS011;7210;51.502;10.722;2023-07-02T03:58:01;12.80;;;11.63;;
14251;SDS011;7210;51.502;10.722;2023-07-02T04:00:28;12.80;;;11.50;;
14251;SDS011;7210;51.502;10.722;2023-07-02T04:02:55;12.60;;;11.50;;
14251;SDS011;7210;51.502;10.722;2023-07-02T04:05:22;12.53;;;11.47;;
14251;SDS011;7210;51.502;10.722;2023-07-02T04:07:50;14.20;;;12.77;;
14251;SDS011;7210;51.502;10.722;2023-07-02T04:10:18;13.93;;;12.43;;
14251;SDS011;7210;51.502;10.722;2023-07-02T04:12:46;16.63;;;12.37;;
14251;SDS011;7210;51.502;10.722;2023-07-02T04:15:13;12.97;;;11.70;;
14251;SDS011;7210;51.502;10.722;2023-07-02T04:17:40;13.33;;;12.13;;
14251;SDS011;7210;51.502;10.722;2023-07-02T04:20:14;12.87;;;11.83;;
14251;SDS011;7210;51.502;10.722;2023-07-02T04:22:41;13.53;;;12.13;;
14251;SDS011;7210;51.502;10.722;2023-07-02T04:25:08;13.00;;;11.70;;
14251;SDS011;7210;51.502;10.722;2023-07-02T04:27:37;11.97;;;10.97;;
14251;SDS011;7210;51.502;10.722;2023-07-02T04:30:04;10.60;;;9.60;;
14251;SDS011;7210;51.502;10.722;2023-07-02T04:32:38;11.67;;;10.57;;
14251;SDS011;7210;51.502;10.722;2023-07-02T04:35:06;10.63;;;9.73;;
14251;SDS011;7210;51.502;10.722;2023-07-02T04:37:34;11.57;;;10.37;;
14251;SDS011;7210;51.502;10.722;2023-07-02T04:40:02;11.40;;;10.03;;
14251;SDS011;7210;51.502;10.722;2023-07-02T04:42:32;12.97;;;11.67;;
14251;SDS011;7210;51.502;10.722;2023-07-02T04:45:04;10.23;;;9.40;;
14251;SDS011;7210;51.502;10.722;2023-07-02T04:47:38;10.40;;;9.40;;
14251;SDS011;7210;51.502;10.722;2023-07-02T04:50:05;9.30;;;8.40;;
14251;SDS011;7210;51.502;10.722;2023-07-02T04:52:33;9.50;;;8.50;;
14251;SDS011;7210;51.502;10.722;2023-07-02T04:55:02;9.03;;;8.10;;
14251;SDS011;7210;51.502;10.722;2023-07-02T04:57:30;8.53;;;7.73;;
14251;SDS011;7210;51.502;10.722;2023-07-02T05:00:04;8.10;;;7.40;;
14251;SDS011;7210;51.502;10.722;2023-07-02T05:02:38;7.27;;;6.57;;
14251;SDS011;7210;51.502;10.722;2023-07-02T05:05:14;7.87;;;6.50;;
14251;SDS011;7210;51.502;10.722;2023-07-02T05:07:41;6.93;;;6.23;;
14251;SDS011;7210;51.502;10.722;2023-07-02T05:10:08;7.20;;;6.47;;
14251;SDS011;7210;51.502;10.722;2023-07-02T05:12:36;6.97;;;6.27;;
14251;SDS011;7210;51.502;10.722;2023-07-02T05:15:05;6.23;;;5.63;;
14251;SDS011;7210;51.502;10.722;2023-07-02T05:17:33;8.03;;;5.13;;
14251;SDS011;7210;51.502;10.722;2023-07-02T05:20:01;6.53;;;5.40;;
14251;SDS011;7210;51.502;10.722;2023-07-02T05:22:29;7.43;;;5.30;;
14251;SDS011;7210;51.502;10.722;2023-07-02T05:24:57;5.77;;;5.17;;
14251;SDS011;7210;51.502;10.722;2023-07-02T05:27:24;5.00;;;4.50;;
14251;SDS011;7210;51.502;10.722;2023-07-02T05:29:51;5.10;;;4.70;;
14251;SDS011;7210;51.502;10.722;2023-07-02T05:32:21;5.50;;;5.00;;
14251;SDS011;7210;51.502;10.722;2023-07-02T05:34:48;4.80;;;4.30;;
14251;SDS011;7210;51.502;10.722;2023-07-02T05:37:15;4.37;;;4.00;;
14251;SDS011;7210;51.502;10.722;2023-07-02T05:39:42;5.43;;;4.00;;
14251;SDS011;7210;51.502;10.722;2023-07-02T05:42:10;5.10;;;4.10;;
14251;SDS011;7210;51.502;10.722;2023-07-02T05:44:37;4.27;;;3.50;;
14251;SDS011;7210;51.502;10.722;2023-07-02T05:47:05;3.57;;;3.27;;
14251;SDS011;7210;51.502;10.722;2023-07-02T05:49:34;3.50;;;3.10;;
14251;SDS011;7210;51.502;10.722;2023-07-02T05:52:01;3.90;;;3.30;;
14251;SDS011;7210;51.502;10.722;2023-07-02T05:54:32;3.87;;;3.50;;
14251;SDS011;7210;51.502;10.722;2023-07-02T05:56:59;3.70;;;3.40;;
14251;SDS011;7210;51.502;10.722;2023-07-02T05:59:26;4.70;;;3.43;;
14251;SDS011;7210;51.502;10.722;2023-07-02T06:02:02;6.93;;;3.63;;
14251;SDS011;7210;51.502;10.722;2023-07-02T06:04:30;3.87;;;3.53;;
14251;SDS011;7210;51.502;10.722;2023-07-02T06:06:59;3.43;;;3.13;;
14251;SDS011;7210;51.502;10.722;2023-07-02T06:09:32;3.97;;;3.57;;
14251;SDS011;7210;51.502;10.722;2023-07-02T06:11:59;3.83;;;3.53;;
14251;SDS011;7210;51.502;10.722;2023-07-02T06:14:27;5.63;;;3.60;;
14251;SDS011;7210;51.502;10.722;2023-07-02T06:16:55;3.77;;;3.40;;
14251;SDS011;7210;51.502;10.722;2023-07-02T06:19:30;3.20;;;3.00;;
14251;SDS011;7210;51.502;10.722;2023-07-02T06:22:00;4.67;;;3.47;;
14251;SDS011;7210;51.502;10.722;2023-07-02T06:24:30;3.63;;;3.33;;
14251;SDS011;7210;51.502;10.722;2023-07-02T06:26:58;4.10;;;3.47;;
14251;SDS011;7210;51.502;10.722;2023-07-02T06:29:26;4.33;;;4.00;;
14251;SDS011;7210;51.502;10.722;2023-07-02T06:31:54;6.00;;;3.77;;
14251;SDS011;7210;51.502;10.722;2023-07-02T06:34:21;4.27;;;3.83;;
14251;SDS011;7210;51.502;10.722;2023-07-02T06:36:49;5.60;;;3.90;;
14251;SDS011;7210;51.502;10.722;2023-07-02T06:39:17;4.40;;;3.93;;
14251;SDS011;7210;51.502;10.722;2023-07-02T06:41:56;4.13;;;3.80;;
14251;SDS011;7210;51.502;10.722;2023-07-02T06:44:28;4.03;;;3.63;;
14251;SDS011;7210;51.502;10.722;2023-07-02T06:46:56;6.47;;;4.20;;
14251;SDS011;7210;51.502;10.722;2023-07-02T06:49:23;6.27;;;4.20;;
14251;SDS011;7210;51.502;10.722;2023-07-02T06:51:50;5.70;;;4.47;;
14251;SDS011;7210;51.502;10.722;2023-07-02T06:54:18;6.77;;;4.50;;
14251;SDS011;7210;51.502;10.722;2023-07-02T06:56:46;5.43;;;4.87;;
14251;SDS011;7210;51.502;10.722;2023-07-02T06:59:17;6.43;;;4.70;;
14251;SDS011;7210;51.502;10.722;2023-07-02T07:01:46;7.10;;;5.10;;
14251;SDS011;7210;51.502;10.722;2023-07-02T07:04:14;6.23;;;5.30;;
14251;SDS011;7210;51.502;10.722;2023-07-02T07:06:41;6.07;;;5.57;;
14251;SDS011;7210;51.502;10.722;2023-07-02T07:09:08;7.63;;;5.70;;
14251;SDS011;7210;51.502;10.722;2023-07-02T07:11:37;8.53;;;6.20;;
14251;SDS011;7210;51.502;10.722;2023-07-02T07:14:04;6.90;;;5.93;;
14251;SDS011;7210;51.502;10.722;2023-07-02T07:16:31;10.93;;;6.67;;
14251;SDS011;7210;51.502;10.722;2023-07-02T07:18:59;6.93;;;6.17;;
14251;SDS011;7210;51.502;10.722;2023-07-02T07:21:26;8.13;;;6.67;;
14251;SDS011;7210;51.502;10.722;2023-07-02T07:23:54;8.63;;;7.13;;
14251;SDS011;7210;51.502;10.722;2023-07-02T07:26:26;8.70;;;7.30;;
14251;SDS011;7210;51.502;10.722;2023-07-02T07:28:57;9.37;;;7.33;;
14251;SDS011;7210;51.502;10.722;2023-07-02T07:31:24;11.37;;;8.47;;
14251;SDS011;7210;51.502;10.722;2023-07-02T07:33:56;8.23;;;6.93;;
14251;SDS011;7210;51.502;10.722;2023-07-02T07:36:26;9.20;;;7.10;;
14251;SDS011;7210;51.502;10.722;2023-07-02T07:38:53;9.77;;;6.77;;
14251;SDS011;7210;51.502;10.722;2023-07-02T07:41:20;7.87;;;6.83;;
14251;SDS011;7210;51.502;10.722;2023-07-02T07:43:47;12.83;;;7.10;;
14251;SDS011;7210;51.502;10.722;2023-07-02T07:46:16;7.33;;;6.63;;
14251;SDS011;7210;51.502;10.722;2023-07-02T07:48:43;9.73;;;7.30;;
14251;SDS011;7210;51.502;10.722;2023-07-02T07:51:10;7.70;;;6.87;;
14251;SDS011;7210;51.502;10.722;2023-07-02T07:53:38;12.60;;;9.40;;
14251;SDS011;7210;51.502;10.722;2023-07-02T07:56:05;8.20;;;7.17;;
14251;SDS011;7210;51.502;10.722;2023-07-02T07:58:32;9.67;;;7.60;;
14251;SDS011;7210;51.502;10.722;2023-07-02T08:01:00;10.47;;;7.20;;
14251;SDS011;7210;51.502;10.722;2023-07-02T08:03:28;9.90;;;7.07;;
14251;SDS011;7210;51.502;10.722;2023-07-02T08:05:55;10.27;;;7.10;;
14251;SDS011;7210;51.502;10.722;2023-07-02T08:08:23;8.03;;;7.33;;
14251;SDS011;7210;51.502;10.722;2023-07-02T08:10:50;9.07;;;6.83;;
14251;SDS011;7210;51.502;10.722;2023-07-02T08:13:20;12.17;;;7.17;;
14251;SDS011;7210;51.502;10.722;2023-07-02T08:15:48;7.73;;;6.77;;
14251;SDS011;7210;51.502;10.722;2023-07-02T08:18:15;8.97;;;7.13;;
14251;SDS011;7210;51.502;10.722;2023-07-02T08:20:44;9.07;;;6.57;;
14251;SDS011;7210;51.502;10.722;2023-07-02T08:23:11;10.57;;;7.83;;
14251;SDS011;7210;51.502;10.722;2023-07-02T08:25:39;9.83;;;6.93;;
14251;SDS011;7210;51.502;10.722;2023-07-02T08:28:06;9.00;;;7.47;;
14251;SDS011;7210;51.502;10.722;2023-07-02T08:30:33;11.33;;;7.70;;
14251;SDS011;7210;51.502;10.722;2023-07-02T08:33:01;11.03;;;7.77;;
14251;SDS011;7210;51.502;10.722;2023-07-02T08:35:29;10.50;;;7.47;;
14251;SDS011;7210;51.502;10.722;2023-07-02T08:37:57;9.13;;;7.40;;
14251;SDS011;7210;51.502;10.722;2023-07-02T08:40:24;9.53;;;7.53;;
14251;SDS011;7210;51.502;10.722;2023-07-02T08:42:52;12.00;;;8.07;;
14251;SDS011;7210;51.502;10.722;2023-07-02T08:45:19;8.77;;;7.63;;
14251;SDS011;7210;51.502;10.722;2023-07-02T08:47:50;10.23;;;8.03;;
14251;SDS011;7210;51.502;10.722;2023-07-02T08:50:20;9.37;;;6.90;;
14251;SDS011;7210;51.502;10.722;2023-07-02T08:52:47;9.20;;;8.27;;
14251;SDS011;7210;51.502;10.722;2023-07-02T08:55:16;10.30;;;7.80;;
14251;SDS011;7210;51.502;10.722;2023-07-02T08:57:47;9.67;;;7.40;;
14251;SDS011;7210;51.502;10.722;2023-07-02T09:00:18;9.37;;;7.43;;
14251;SDS011;7210;51.502;10.722;2023-07-02T09:02:46;14.00;;;8.37;;
14251;SDS011;7210;51.502;10.722;2023-07-02T09:05:26;13.33;;;8.27;;
14251;SDS011;7210;51.502;10.722;2023-07-02T09:07:53;13.07;;;8.57;;
14251;SDS011;7210;51.502;10.722;2023-07-02T09:10:28;14.23;;;8.53;;
14251;SDS011;7210;51.502;10.722;2023-07-02T09:13:05;11.90;;;8.40;;
14251;SDS011;7210;51.502;10.722;2023-07-02T09:15:38;14.30;;;8.17;;
14251;SDS011;7210;51.502;10.722;2023-07-02T09:18:16;13.50;;;8.60;;
14251;SDS011;7210;51.502;10.722;2023-07-02T09:20:44;13.23;;;8.17;;
14251;SDS011;7210;51.502;10.722;2023-07-02T09:23:12;14.00;;;8.20;;
14251;SDS011;7210;51.502;10.722;2023-07-02T09:25:45;12.53;;;9.23;;
14251;SDS011;7210;51.502;10.722;2023-07-02T09:28:17;15.73;;;8.67;;
14251;SDS011;7210;51.502;10.722;2023-07-02T09:30:49;13.53;;;8.33;;
14251;SDS011;7210;51.502;10.722;2023-07-02T09:33:18;13.27;;;8.53;;
14251;SDS011;7210;51.502;10.722;2023-07-02T09:35:46;13.27;;;8.67;;
14251;SDS011;7210;51.502;10.722;2023-07-02T09:38:14;12.00;;;8.63;;
14251;SDS011;7210;51.502;10.722;2023-07-02T09:40:46;15.80;;;8.63;;
14251;SDS011;7210;51.502;10.722;2023-07-02T09:43:16;13.77;;;7.83;;
14251;SDS011;7210;51.502;10.722;2023-07-02T09:45:45;15.20;;;9.00;;
14251;SDS011;7210;51.502;10.722;2023-07-02T09:48:14;19.43;;;8.70;;
14251;SDS011;7210;51.502;10.722;2023-07-02T09:50:43;15.53;;;8.97;;
14251;SDS011;7210;51.502;10.722;2023-07-02T09:53:14;15.30;;;8.33;;
14251;SDS011;7210;51.502;10.722;2023-07-02T09:55:45;13.67;;;9.00;;
14251;SDS011;7210;51.502;10.722;2023-07-02T09:58:12;12.83;;;8.13;;
14251;SDS011;7210;51.502;10.722;2023-07-02T10:00:39;10.83;;;7.33;;
14251;SDS011;7210;51.502;10.722;2023-07-02T10:03:14;14.27;;;8.43;;
14251;SDS011;7210;51.502;10.722;2023-07-02T10:05:41;11.63;;;8.10;;
14251;SDS011;7210;51.502;10.722;2023-07-02T10:08:11;14.47;;;7.87;;
14251;SDS011;7210;51.502;10.722;2023-07-02T10:10:43;14.93;;;8.83;;
14251;SDS011;7210;51.502;10.722;2023-07-02T10:13:11;12.50;;;8.87;;
14251;SDS011;7210;51.502;10.722;2023-07-02T10:15:44;11.83;;;8.17;;
14251;SDS011;7210;51.502;10.722;2023-07-02T10:18:11;14.13;;;8.50;;
14251;SDS011;7210;51.502;10.722;2023-07-02T10:20:39;13.90;;;8.70;;
14251;SDS011;7210;51.502;10.722;2023-07-02T10:23:08;12.00;;;8.10;;
14251;SDS011;7210;51.502;10.722;2023-07-02T10:25:36;12.67;;;8.87;;
14251;SDS011;7210;51.502;10.722;2023-07-02T10:28:15;12.53;;;8.53;;
14251;SDS011;7210;51.502;10.722;2023-07-02T10:30:44;11.47;;;8.00;;
14251;SDS011;7210;51.502;10.722;2023-07-02T10:33:12;12.70;;;8.77;;
14251;SDS011;7210;51.502;10.722;2023-07-02T10:35:41;16.30;;;9.07;;
14251;SDS011;7210;51.502;10.722;2023-07-02T10:38:15;14.83;;;9.60;;
14251;SDS011;7210;51.502;10.722;2023-07-02T10:40:53;16.10;;;9.20;;
14251;SDS011;7210;51.502;10.722;2023-07-02T10:43:25;16.73;;;9.10;;
14251;SDS011;7210;51.502;10.722;2023-07-02T10:45:53;13.60;;;9.63;;
14251;SDS011;7210;51.502;10.722;2023-07-02T10:48:22;15.33;;;9.53;;
14251;SDS011;7210;51.502;10.722;2023-07-02T10:50:50;17.70;;;9.73;;
14251;SDS011;7210;51.502;10.722;2023-07-02T10:53:26;12.67;;;8.93;;
14251;SDS011;7210;51.502;10.722;2023-07-02T10:55:53;10.60;;;8.87;;
14251;SDS011;7210;51.502;10.722;2023-07-02T10:58:21;13.93;;;9.33;;
14251;SDS011;7210;51.502;10.722;2023-07-02T11:00:57;14.47;;;9.10;;
14251;SDS011;7210;51.502;10.722;2023-07-02T11:03:25;14.07;;;9.27;;
14251;SDS011;7210;51.502;10.722;2023-07-02T11:05:53;15.60;;;9.17;;
14251;SDS011;7210;51.502;10.722;2023-07-02T11:08:20;14.90;;;9.00;;
14251;SDS011;7210;51.502;10.722;2023-07-02T11:10:49;12.57;;;9.43;;
14251;SDS011;7210;51.502;10.722;2023-07-02T11:13:17;15.07;;;9.60;;
14251;SDS011;7210;51.502;10.722;2023-07-02T11:15:46;10.90;;;8.93;;
14251;SDS011;7210;51.502;10.722;2023-07-02T11:18:15;10.87;;;8.33;;
14251;SDS011;7210;51.502;10.722;2023-07-02T11:20:46;15.83;;;9.07;;
14251;SDS011;7210;51.502;10.722;2023-07-02T11:23:20;15.37;;;10.03;;
14251;SDS011;7210;51.502;10.722;2023-07-02T11:25:56;15.63;;;9.20;;
14251;SDS011;7210;51.502;10.722;2023-07-02T11:28:24;16.60;;;8.93;;
14251;SDS011;7210;51.502;10.722;2023-07-02T11:30:53;17.77;;;10.40;;
14251;SDS011;7210;51.502;10.722;2023-07-02T11:36:19;17.97;;;11.33;;
14251;SDS011;7210;51.502;10.722;2023-07-02T11:38:48;14.57;;;10.90;;
14251;SDS011;7210;51.502;10.722;2023-07-02T11:41:17;23.93;;;10.73;;
14251;SDS011;7210;51.502;10.722;2023-07-02T11:43:45;18.10;;;10.80;;
14251;SDS011;7210;51.502;10.722;2023-07-02T11:46:13;14.93;;;10.23;;
14251;SDS011;7210;51.502;10.722;2023-07-02T11:48:42;12.23;;;10.03;;
14251;SDS011;7210;51.502;10.722;2023-07-02T11:51:09;13.87;;;9.60;;
14251;SDS011;7210;51.502;10.722;2023-07-02T11:53:36;12.77;;;8.97;;
14251;SDS011;7210;51.502;10.722;2023-07-02T11:56:08;13.53;;;9.63;;
14251;SDS011;7210;51.502;10.722;2023-07-02T11:58:38;15.00;;;10.20;;
14251;SDS011;7210;51.502;10.722;2023-07-02T12:01:05;16.60;;;10.10;;
14251;SDS011;7210;51.502;10.722;2023-07-02T12:03:32;15.23;;;9.73;;
14251;SDS011;7210;51.502;10.722;2023-07-02T12:06:01;12.87;;;9.40;;
14251;SDS011;7210;51.502;10.722;2023-07-02T12:08:28;17.40;;;9.97;;
14251;SDS011;7210;51.502;10.722;2023-07-02T12:10:56;16.97;;;10.20;;
14251;SDS011;7210;51.502;10.722;2023-07-02T12:13:23;14.30;;;10.00;;
14251;SDS011;7210;51.502;10.722;2023-07-02T12:15:56;12.97;;;10.53;;
14251;SDS011;7210;51.502;10.722;2023-07-02T12:18:23;14.20;;;10.13;;
14251;SDS011;7210;51.502;10.722;2023-07-02T12:20:50;15.80;;;10.30;;
14251;SDS011;7210;51.502;10.722;2023-07-02T12:23:21;15.30;;;9.33;;
14251;SDS011;7210;51.502;10.722;2023-07-02T12:25:48;16.03;;;9.80;;
14251;SDS011;7210;51.502;10.722;2023-07-02T12:28:15;14.77;;;10.30;;
14251;SDS011;7210;51.502;10.722;2023-07-02T12:30:42;16.33;;;10.63;;
14251;SDS011;7210;51.502;10.722;2023-07-02T12:33:10;16.50;;;10.13;;
14251;SDS011;7210;51.502;10.722;2023-07-02T12:35:37;13.03;;;9.73;;
14251;SDS011;7210;51.502;10.722;2023-07-02T12:38:04;14.80;;;9.83;;
14251;SDS011;7210;51.502;10.722;2023-07-02T12:40:34;14.63;;;10.30;;
14251;SDS011;7210;51.502;10.722;2023-07-02T12:43:01;12.27;;;9.93;;
14251;SDS011;7210;51.502;10.722;2023-07-02T12:45:29;16.57;;;9.93;;
14251;SDS011;7210;51.502;10.722;2023-07-02T12:48:02;15.27;;;10.23;;
14251;SDS011;7210;51.502;10.722;2023-07-02T12:50:29;16.97;;;10.30;;
14251;SDS011;7210;51.502;10.722;2023-07-02T12:52:56;14.30;;;9.77;;
14251;SDS011;7210;51.502;10.722;2023-07-02T12:55:24;12.47;;;9.47;;
14251;SDS011;7210;51.502;10.722;2023-07-02T12:57:52;13.80;;;10.27;;
14251;SDS011;7210;51.502;10.722;2023-07-02T13:00:20;16.10;;;10.13;;
14251;SDS011;7210;51.502;10.722;2023-07-02T13:02:56;14.23;;;10.33;;
14251;SDS011;7210;51.502;10.722;2023-07-02T13:05:23;14.40;;;10.30;;
14251;SDS011;7210;51.502;10.722;2023-07-02T13:07:56;13.10;;;9.93;;
14251;SDS011;7210;51.502;10.722;2023-07-02T13:10:26;17.23;;;10.47;;
14251;SDS011;7210;51.502;10.722;2023-07-02T13:12:57;16.60;;;10.63;;
14251;SDS011;7210;51.502;10.722;2023-07-02T13:15:24;13.23;;;9.83;;
14251;SDS011;7210;51.502;10.722;2023-07-02T13:17:52;18.77;;;9.83;;
14251;SDS011;7210;51.502;10.722;2023-07-02T13:20:26;16.33;;;10.57;;
14251;SDS011;7210;51.502;10.722;2023-07-02T13:22:53;16.37;;;10.57;;
14251;SDS011;7210;51.502;10.722;2023-07-02T13:25:20;12.00;;;10.07;;
14251;SDS011;7210;51.502;10.722;2023-07-02T13:27:50;15.20;;;10.53;;
14251;SDS011;7210;51.502;10.722;2023-07-02T13:30:18;18.23;;;10.30;;
14251;SDS011;7210;51.502;10.722;2023-07-02T13:32:46;15.73;;;10.47;;
14251;SDS011;7210;51.502;10.722;2023-07-02T13:35:13;16.97;;;10.03;;
14251;SDS011;7210;51.502;10.722;2023-07-02T13:37:44;15.10;;;9.83;;
14251;SDS011;7210;51.502;10.722;2023-07-02T13:40:11;15.90;;;10.97;;
14251;SDS011;7210;51.502;10.722;2023-07-02T13:42:40;14.17;;;10.23;;
14251;SDS011;7210;51.502;10.722;2023-07-02T13:45:08;14.77;;;10.00;;
14251;SDS011;7210;51.502;10.722;2023-07-02T13:47:37;15.47;;;10.47;;
14251;SDS011;7210;51.502;10.722;2023-07-02T13:50:05;14.27;;;9.67;;
14251;SDS011;7210;51.502;10.722;2023-07-02T13:52:38;14.93;;;10.17;;
14251;SDS011;7210;51.502;10.722;2023-07-02T13:55:05;17.57;;;10.83;;
14251;SDS011;7210;51.502;10.722;2023-07-02T13:57:33;16.73;;;10.50;;
14251;SDS011;7210;51.502;10.722;2023-07-02T14:00:02;14.23;;;11.00;;
14251;SDS011;7210;51.502;10.722;2023-07-02T14:02:31;16.03;;;11.07;;
14251;SDS011;7210;51.502;10.722;2023-07-02T14:04:58;14.83;;;10.80;;
14251;SDS011;7210;51.502;10.722;2023-07-02T14:07:26;14.43;;;10.57;;
14251;SDS011;7210;51.502;10.722;2023-07-02T14:09:53;16.33;;;10.87;;
14251;SDS011;7210;51.502;10.722;2023-07-02T14:12:21;16.87;;;10.63;;
14251;SDS011;7210;51.502;10.722;2023-07-02T14:14:48;16.93;;;10.97;;
14251;SDS011;7210;51.502;10.722;2023-07-02T14:17:17;17.63;;;10.83;;
14251;SDS011;7210;51.502;10.722;2023-07-02T14:19:44;15.87;;;10.97;;
14251;SDS011;7210;51.502;10.722;2023-07-02T14:22:14;15.77;;;11.03;;
14251;SDS011;7210;51.502;10.722;2023-07-02T14:24:41;18.43;;;11.27;;
14251;SDS011;7210;51.502;10.722;2023-07-02T14:27:14;17.10;;;10.30;;
14251;SDS011;7210;51.502;10.722;2023-07-02T14:29:41;18.17;;;10.33;;
14251;SDS011;7210;51.502;10.722;2023-07-02T14:32:14;18.43;;;10.80;;
14251;SDS011;7210;51.502;10.722;2023-07-02T14:34:43;17.33;;;10.83;;
14251;SDS011;7210;51.502;10.722;2023-07-02T14:37:10;13.40;;;10.40;;
14251;SDS011;7210;51.502;10.722;2023-07-02T14:39:37;17.30;;;10.83;;
14251;SDS011;7210;51.502;10.722;2023-07-02T14:42:05;16.53;;;10.43;;
14251;SDS011;7210;51.502;10.722;2023-07-02T14:44:32;14.67;;;11.47;;
14251;SDS011;7210;51.502;10.722;2023-07-02T14:46:59;17.37;;;11.13;;
14251;SDS011;7210;51.502;10.722;2023-07-02T14:49:27;19.43;;;10.83;;
14251;SDS011;7210;51.502;10.722;2023-07-02T14:51:55;18.53;;;11.43;;
14251;SDS011;7210;51.502;10.722;2023-07-02T14:54:22;16.47;;;11.33;;